createdAt,value
2019-02-07T00:02:38.980Z,10.80
2019-02-07T00:07:41.712Z,11.57
2019-02-07T00:12:44.399Z,11.40
2019-02-07T00:17:47.615Z,12.70
2019-02-07T00:22:50.306Z,11.80
2019-02-07T00:27:53.010Z,12.07
2019-02-07T00:32:55.708Z,10.63
2019-02-07T00:37:58.407Z,11.33
2019-02-07T00:43:01.410Z,12.53
2019-02-07T00:48:04.518Z,11.30
2019-02-07T00:53:07.239Z,11.63
2019-02-07T00:58:09.938Z,11.10
2019-02-07T01:03:12.664Z,12.37
2019-02-07T01:08:15.887Z,11.60
2019-02-07T01:13:18.583Z,12.03
2019-02-07T01:18:21.614Z,10.33
2019-02-07T01:23:24.323Z,9.80
2019-02-07T01:28:27.009Z,9.77
2019-02-07T01:33:29.815Z,11.53
2019-02-07T01:38:32.511Z,11.37
2019-02-07T01:43:35.203Z,11.07
2019-02-07T01:48:37.899Z,10.13
2019-02-07T01:53:40.592Z,10.07
2019-02-07T01:58:43.338Z,10.57
2019-02-07T02:03:46.031Z,10.20
2019-02-07T02:08:48.748Z,10.17
2019-02-07T02:13:51.572Z,10.17
2019-02-07T02:18:54.484Z,10.40
2019-02-07T02:23:57.200Z,10.30
2019-02-07T02:29:04.797Z,10.07
2019-02-07T02:34:07.679Z,10.33
2019-02-07T02:39:10.379Z,9.73
2019-02-07T02:44:13.059Z,9.60
2019-02-07T02:49:15.776Z,10.40
2019-02-07T02:54:32.939Z,10.33
2019-02-07T02:59:35.660Z,10.13
2019-02-07T03:04:56.331Z,9.60
2019-02-07T03:10:24.286Z,10.17
2019-02-07T03:15:50.172Z,10.07
2019-02-07T03:21:11.033Z,9.40
2019-02-07T03:26:36.420Z,9.30
2019-02-07T03:31:57.124Z,10.43
2019-02-07T03:37:11.761Z,9.53
2019-02-07T03:42:43.161Z,9.50
2019-02-07T03:48:17.284Z,10.60
2019-02-07T03:53:39.631Z,10.80
2019-02-07T03:58:51.674Z,10.53
2019-02-07T04:04:09.075Z,10.40
2019-02-07T04:09:29.659Z,12.00
2019-02-07T04:14:50.203Z,10.90
2019-02-07T04:20:13.758Z,10.90
2019-02-07T04:25:34.660Z,12.07
2019-02-07T04:30:50.471Z,10.83
2019-02-07T04:36:07.685Z,10.50
2019-02-07T04:41:41.222Z,11.37
2019-02-07T04:59:50.523Z,11.07
2019-02-07T05:05:50.856Z,11.43
2019-02-07T05:11:16.519Z,11.07
2019-02-07T05:16:51.414Z,10.97
2019-02-07T05:22:10.376Z,10.77
2019-02-07T05:27:31.049Z,10.97
2019-02-07T05:32:45.071Z,11.60
2019-02-07T05:37:56.459Z,10.87
2019-02-07T05:43:19.064Z,10.80
2019-02-07T05:48:47.408Z,11.10
2019-02-07T05:54:12.903Z,10.40
2019-02-07T05:59:45.221Z,11.20
2019-02-07T06:05:13.415Z,13.43
2019-02-07T06:10:50.506Z,10.63
2019-02-07T06:16:11.212Z,10.77
2019-02-07T06:21:26.190Z,10.10
2019-02-07T06:26:48.592Z,10.37
2019-02-07T06:31:58.776Z,9.60
2019-02-07T06:37:19.566Z,10.00
2019-02-07T06:42:29.779Z,9.77
2019-02-07T06:47:44.867Z,10.80
2019-02-07T06:53:06.163Z,10.90
2019-02-07T06:58:34.075Z,11.33
2019-02-07T07:04:03.063Z,10.83
2019-02-07T07:09:26.934Z,9.87
2019-02-07T07:15:00.884Z,11.00
2019-02-07T07:20:30.689Z,11.40
2019-02-07T07:25:48.090Z,11.73
2019-02-07T07:31:08.606Z,12.60
2019-02-07T07:36:22.427Z,11.10
2019-02-07T07:41:43.237Z,10.87
2019-02-07T07:47:03.720Z,12.70
2019-02-07T07:52:24.209Z,11.93
2019-02-07T07:57:39.860Z,11.10
2019-02-07T08:03:17.256Z,10.77
2019-02-07T08:08:38.012Z,11.93
2019-02-07T08:13:58.579Z,10.27
2019-02-07T08:19:19.072Z,10.30
2019-02-07T08:24:50.038Z,11.80
2019-02-07T08:30:10.513Z,11.73
2019-02-07T08:35:32.021Z,11.53
2019-02-07T08:41:06.205Z,11.73
2019-02-07T08:46:37.408Z,12.73
2019-02-07T08:52:09.526Z,13.07
2019-02-07T08:57:31.846Z,11.90
2019-02-07T09:02:51.878Z,12.20
2019-02-07T09:08:16.133Z,11.73
2019-02-07T09:13:43.213Z,11.40
2019-02-07T09:19:11.425Z,11.03
2019-02-07T09:24:32.698Z,11.70
2019-02-07T09:30:12.967Z,10.50
2019-02-07T09:35:32.956Z,11.07
2019-02-07T09:40:50.539Z,10.77
2019-02-07T09:46:12.842Z,11.60
2019-02-07T09:51:33.267Z,10.33
2019-02-07T09:56:55.175Z,9.80
2019-02-07T10:02:12.256Z,10.00
2019-02-07T10:07:34.593Z,9.80
2019-02-07T10:12:56.893Z,10.63
2019-02-07T10:18:19.204Z,9.57
2019-02-07T10:23:53.245Z,10.20
2019-02-07T10:29:24.090Z,9.90
2019-02-07T10:34:44.813Z,9.70
2019-02-07T10:40:07.136Z,10.03
2019-02-07T10:45:33.780Z,10.30
2019-02-07T10:50:58.894Z,10.00
2019-02-07T10:56:16.060Z,10.07
2019-02-07T11:01:43.642Z,9.80
2019-02-07T11:06:56.259Z,10.17
2019-02-07T11:12:33.251Z,9.33
2019-02-07T11:18:04.518Z,9.60
2019-02-07T11:23:44.872Z,12.20
2019-02-07T11:29:05.386Z,13.00
2019-02-07T11:34:21.472Z,8.10
2019-02-07T11:39:46.662Z,7.87
2019-02-07T11:45:07.376Z,9.00
2019-02-07T11:50:29.781Z,8.30
2019-02-07T11:55:59.076Z,7.67
2019-02-07T12:01:26.463Z,6.30
2019-02-07T12:06:51.917Z,6.57
2019-02-07T12:12:17.111Z,6.00
2019-02-07T12:17:45.534Z,6.60
2019-02-07T12:23:05.954Z,5.87
2019-02-07T12:28:28.373Z,6.20
2019-02-07T12:33:50.678Z,5.13
2019-02-07T12:39:15.571Z,5.40
2019-02-07T12:44:52.809Z,4.57
2019-02-07T12:50:13.236Z,5.27
2019-02-07T12:55:26.808Z,3.70
2019-02-07T13:00:51.215Z,3.60
2019-02-07T13:06:05.731Z,3.13
2019-02-07T13:11:33.458Z,3.30
2019-02-07T13:16:45.944Z,3.43
2019-02-07T13:22:10.274Z,2.60
2019-02-07T13:27:24.820Z,2.40
2019-02-07T13:32:46.333Z,2.37
2019-02-07T13:38:26.384Z,1.87
2019-02-07T13:43:47.290Z,3.97
2019-02-07T13:49:15.459Z,1.50
2019-02-07T13:54:33.932Z,1.60
2019-02-07T13:59:48.029Z,2.00
2019-02-07T14:05:12.906Z,1.93
2019-02-07T14:10:44.357Z,1.90
2019-02-07T14:16:24.606Z,2.43
2019-02-07T14:21:45.480Z,2.40
2019-02-07T14:27:07.787Z,2.40
2019-02-07T14:32:30.318Z,2.40
2019-02-07T14:37:55.375Z,1.80
2019-02-07T14:43:10.881Z,2.23
2019-02-07T14:48:23.628Z,2.67
2019-02-07T14:53:26.398Z,2.07
2019-02-07T14:58:29.347Z,2.87
2019-02-07T15:03:32.034Z,2.47
2019-02-07T15:08:34.764Z,2.30
2019-02-07T15:13:37.561Z,2.30
2019-02-07T15:18:40.635Z,2.90
2019-02-07T15:23:43.352Z,2.87
2019-02-07T15:28:46.027Z,2.50
2019-02-07T15:33:48.764Z,2.90
2019-02-07T15:38:51.431Z,2.47
2019-02-07T15:43:54.098Z,2.87
2019-02-07T15:48:57.087Z,3.23
2019-02-07T15:53:59.836Z,2.87
2019-02-07T15:59:14.685Z,2.90
2019-02-07T16:04:20.699Z,2.60
2019-02-07T16:09:23.678Z,3.30
2019-02-07T16:14:26.460Z,2.90
2019-02-07T16:19:30.038Z,2.10
2019-02-07T16:24:32.737Z,2.23
2019-02-07T16:29:35.392Z,2.60
2019-02-07T16:34:38.099Z,1.90
2019-02-07T16:39:40.934Z,2.87
2019-02-07T16:44:43.612Z,3.27
2019-02-07T16:49:46.597Z,2.23
2019-02-07T16:54:50.821Z,2.17
2019-02-07T16:59:53.888Z,1.70
2019-02-07T17:04:56.851Z,2.50
2019-02-07T17:09:59.914Z,2.30
2019-02-07T17:15:04.712Z,2.00
2019-02-07T17:20:15.037Z,1.57
2019-02-07T17:25:18.241Z,4.07
2019-02-07T17:30:21.241Z,1.70
2019-02-07T17:35:24.319Z,1.93
2019-02-07T17:40:27.001Z,2.07
2019-02-07T17:45:29.795Z,1.90
2019-02-07T17:50:32.729Z,1.67
2019-02-07T17:55:35.403Z,1.97
2019-02-07T18:01:01.932Z,2.33
2019-02-07T18:06:06.812Z,1.47
2019-02-07T18:11:09.538Z,1.87
2019-02-07T18:16:12.300Z,1.60
2019-02-07T18:21:14.973Z,1.07
2019-02-07T18:26:17.640Z,1.27
2019-02-07T18:31:20.312Z,1.30
2019-02-07T18:36:23.372Z,1.30
2019-02-07T18:41:26.071Z,1.43
2019-02-07T18:46:28.751Z,1.50
2019-02-07T18:51:31.564Z,1.53
2019-02-07T18:56:34.336Z,1.40
2019-02-07T19:01:37.007Z,2.20
2019-02-07T19:06:39.699Z,1.50
2019-02-07T19:11:42.507Z,1.50
2019-02-07T19:16:45.367Z,1.30
2019-02-07T19:21:56.726Z,1.67
2019-02-07T19:26:52.613Z,1.37
2019-02-07T19:31:55.281Z,1.30
2019-02-07T19:36:57.946Z,1.30
2019-02-07T19:42:00.923Z,1.70
2019-02-07T19:47:03.609Z,1.40
2019-02-07T19:52:08.523Z,1.37
2019-02-07T19:57:11.339Z,1.07
2019-02-07T20:02:14.355Z,1.47
2019-02-07T20:07:17.133Z,1.97
2019-02-07T20:12:19.913Z,1.37
2019-02-07T20:17:22.584Z,2.33
2019-02-07T20:22:25.656Z,1.50
2019-02-07T20:27:28.329Z,1.60
2019-02-07T20:32:31.013Z,2.20
2019-02-07T20:37:33.884Z,1.90
2019-02-07T20:42:36.568Z,1.50
2019-02-07T20:47:39.298Z,1.93
2019-02-07T20:52:42.278Z,1.90
2019-02-07T20:57:45.100Z,1.40
2019-02-07T21:02:47.910Z,1.50
2019-02-07T21:07:50.600Z,1.70
2019-02-07T21:12:53.277Z,1.40
2019-02-07T21:17:56.257Z,1.27
2019-02-07T21:22:59.615Z,1.60
2019-02-07T21:28:02.390Z,1.50
2019-02-07T21:33:05.852Z,1.70
2019-02-07T21:38:08.910Z,1.50
2019-02-07T21:43:11.565Z,2.00
2019-02-07T21:48:14.263Z,3.20
2019-02-07T21:53:16.937Z,1.63
2019-02-07T21:58:19.600Z,1.87
2019-02-07T22:03:22.360Z,1.30
2019-02-07T22:08:25.064Z,1.70
2019-02-07T22:13:28.039Z,1.87
2019-02-07T22:18:30.717Z,2.17
2019-02-07T22:23:33.377Z,2.10
2019-02-07T22:28:36.066Z,1.43
2019-02-07T22:33:38.727Z,3.10
2019-02-07T22:38:41.407Z,4.87
2019-02-07T22:43:44.110Z,3.90
2019-02-07T22:48:46.783Z,3.27
2019-02-07T22:53:49.459Z,3.00
2019-02-07T22:58:52.144Z,2.80
2019-02-07T23:04:04.371Z,3.47
2019-02-07T23:09:10.533Z,3.53
2019-02-07T23:14:13.537Z,3.77
2019-02-07T23:19:16.199Z,3.27
2019-02-07T23:24:18.901Z,3.30
2019-02-07T23:29:21.965Z,3.53
2019-02-07T23:34:24.627Z,3.90
2019-02-07T23:39:27.299Z,3.40
2019-02-07T23:44:30.163Z,3.00
2019-02-07T23:49:32.826Z,3.90
2019-02-07T23:54:35.517Z,3.53
2019-02-07T23:59:38.198Z,3.60
